Time;durP1;ratioP1;P1;durP2;ratioP2;P2;SDS_P1;SDS_P2;PMS_P1;PMS_P2;Temp;Humidity;BMP_temperature;BMP_pressure;BME280_temperature;BME280_humidity;BME280_pressure;Samples;Min_cycle;Max_cycle;Signal;HPM_P1;HPM_P2
2023/08/16 00:00:53;;;;;;;5.47;1.70;;;20.60;99.90;;;;;;5091021;28;20511;-61
2023/08/16 00:03:19;;;;;;;2.92;1.40;;;20.60;99.90;;;;;;5090954;28;20082;-62
2023/08/16 00:05:45;;;;;;;4.10;1.60;;;20.50;99.90;;;;;;5091259;28;20497;-62
2023/08/16 00:08:11;;;;;;;4.03;1.90;;;20.60;99.90;;;;;;5090847;28;20044;-61
2023/08/16 00:10:37;;;;;;;5.05;1.90;;;20.40;99.90;;;;;;5095103;28;20047;-61
2023/08/16 00:13:03;;;;;;;3.97;1.65;;;20.50;99.90;;;;;;5094775;28;20559;-62
2023/08/16 00:15:29;;;;;;;2.88;1.60;;;20.70;99.90;;;;;;5095059;28;20055;-61
2023/08/16 00:17:54;;;;;;;4.55;1.70;;;21.00;99.90;;;;;;5094577;28;20507;-61
2023/08/16 00:20:20;;;;;;;3.15;1.40;;;21.10;99.90;;;;;;5094241;28;20063;-61
2023/08/16 00:22:47;;;;;;;3.63;1.48;;;21.20;99.90;;;;;;5094676;28;20031;-61
2023/08/16 00:25:13;;;;;;;6.22;1.80;;;21.20;99.90;;;;;;5094331;28;20553;-61
2023/08/16 00:27:39;;;;;;;5.60;1.70;;;21.20;99.90;;;;;;5094765;28;20067;-61
2023/08/16 00:30:06;;;;;;;6.18;1.80;;;21.20;99.90;;;;;;5094508;28;20027;-62
2023/08/16 00:32:32;;;;;;;5.05;1.80;;;21.20;99.90;;;;;;5094428;28;20028;-62
2023/08/16 00:34:57;;;;;;;5.85;1.90;;;21.10;99.90;;;;;;5094067;28;20028;-62
2023/08/16 00:37:23;;;;;;;5.28;1.80;;;21.10;99.90;;;;;;5094688;28;20028;-62
2023/08/16 00:39:49;;;;;;;4.03;1.50;;;21.20;99.90;;;;;;5094647;28;20055;-61
2023/08/16 00:42:15;;;;;;;3.63;1.88;;;21.10;99.90;;;;;;5094426;28;20032;-61
2023/08/16 00:44:41;;;;;;;3.55;1.52;;;21.10;99.90;;;;;;5094268;28;20035;-62
2023/08/16 00:47:07;;;;;;;3.63;1.60;;;20.90;99.90;;;;;;5094160;28;20439;-61
2023/08/16 00:49:33;;;;;;;3.90;1.80;;;20.80;99.90;;;;;;5093706;28;20103;-61
2023/08/16 00:52:00;;;;;;;3.50;1.35;;;20.70;99.90;;;;;;5094173;28;20438;-62
2023/08/16 00:54:26;;;;;;;4.50;1.55;;;20.50;99.90;;;;;;5094429;28;20051;-62
2023/08/16 00:56:52;;;;;;;2.45;1.42;;;20.40;99.90;;;;;;5093957;28;20496;-62
2023/08/16 00:59:19;;;;;;;4.30;1.70;;;20.20;99.90;;;;;;5094023;28;20531;-62
2023/08/16 01:01:45;;;;;;;3.55;1.60;;;20.10;99.90;;;;;;5094152;28;20020;-61
2023/08/16 01:04:11;;;;;;;3.45;1.48;;;20.20;99.90;;;;;;5093508;28;20519;-61
2023/08/16 01:06:37;;;;;;;3.47;1.58;;;20.10;99.90;;;;;;5093905;28;20120;-62
2023/08/16 01:09:03;;;;;;;5.22;1.60;;;20.10;99.90;;;;;;5093728;28;20067;-61
2023/08/16 01:11:37;;;;;;;2.55;1.50;;;20.10;99.90;;;;;;5093708;28;20434;-62
2023/08/16 01:14:26;;;;;;;;;;;20.10;99.90;;;;;;5094285;28;20020;-62
2023/08/16 01:16:53;;;;;;;3.63;1.63;;;20.10;99.90;;;;;;5082430;28;19908;-62
2023/08/16 01:19:31;;;;;;;4.78;1.65;;;20.00;99.90;;;;;;5092978;28;20016;-62
2023/08/16 01:22:42;;;;;;;3.83;1.50;;;20.00;99.90;;;;;;5094129;28;20106;-62
2023/08/16 01:25:22;;;;;;;3.97;1.60;;;20.10;99.90;;;;;;5093700;28;20028;-62
2023/08/16 01:27:51;;;;;;;6.85;1.73;;;20.00;99.90;;;;;;5093352;28;20123;-61
2023/08/16 01:30:18;;;;;;;5.28;1.67;;;20.00;99.90;;;;;;5093556;28;20492;-62
2023/08/16 01:32:44;;;;;;;3.00;1.50;;;20.20;99.90;;;;;;5093030;28;20570;-62
2023/08/16 01:35:09;;;;;;;4.70;1.50;;;20.50;99.90;;;;;;5093292;28;20028;-62
2023/08/16 01:37:35;;;;;;;3.42;1.50;;;20.80;99.90;;;;;;5093088;28;20050;-61
2023/08/16 01:40:04;;;;;;;4.32;1.60;;;20.90;99.90;;;;;;5093547;28;20027;-61
2023/08/16 01:42:35;;;;;;;3.95;1.55;;;20.90;99.90;;;;;;5075262;28;20031;-61
2023/08/16 01:45:01;;;;;;;3.38;1.48;;;21.00;99.90;;;;;;5093001;28;20535;-61
2023/08/16 01:47:28;;;;;;;4.22;1.55;;;21.00;99.90;;;;;;5092528;28;20032;-61
2023/08/16 01:49:57;;;;;;;3.00;1.42;;;21.00;99.90;;;;;;5092919;28;20063;-62
2023/08/16 01:52:25;;;;;;;3.88;1.88;;;21.00;99.90;;;;;;5093315;28;20071;-62
2023/08/16 01:54:51;;;;;;;3.20;1.50;;;21.00;99.90;;;;;;5092813;28;20396;-61
2023/08/16 01:57:17;;;;;;;2.85;1.40;;;21.00;99.90;;;;;;5092909;28;20025;-62
2023/08/16 01:59:42;;;;;;;4.90;1.70;;;21.00;99.90;;;;;;5092689;28;20028;-62
2023/08/16 02:02:08;;;;;;;3.97;1.60;;;21.00;99.90;;;;;;5092395;28;20028;-62
2023/08/16 02:04:34;;;;;;;3.13;1.40;;;20.90;99.90;;;;;;5092861;28;20431;-61
2023/08/16 02:06:59;;;;;;;6.22;1.90;;;20.70;99.90;;;;;;5092590;28;20040;-62
2023/08/16 02:09:25;;;;;;;3.53;1.67;;;20.50;99.90;;;;;;5092946;28;20404;-62
2023/08/16 02:11:51;;;;;;;4.65;1.55;;;20.40;99.90;;;;;;5092767;28;20137;-62
2023/08/16 02:14:17;;;;;;;4.88;2.10;;;20.30;99.90;;;;;;5092281;28;20066;-61
2023/08/16 02:16:42;;;;;;;2.72;1.50;;;20.20;99.90;;;;;;5092228;28;20203;-62
2023/08/16 02:19:08;;;;;;;6.82;1.73;;;20.10;99.90;;;;;;5092249;28;20017;-62
2023/08/16 02:21:34;;;;;;;4.68;1.58;;;20.10;99.90;;;;;;5092302;28;20400;-62
2023/08/16 02:23:59;;;;;;;3.30;1.60;;;20.10;99.90;;;;;;5092442;28;20103;-61
2023/08/16 02:26:25;;;;;;;5.13;1.60;;;20.00;99.90;;;;;;5092092;28;20049;-62
2023/08/16 02:28:51;;;;;;;4.40;1.77;;;20.00;99.90;;;;;;5092068;28;20032;-62
2023/08/16 02:31:17;;;;;;;4.05;1.70;;;20.00;99.90;;;;;;5091554;28;20104;-62
2023/08/16 02:33:43;;;;;;;3.90;1.60;;;19.90;99.90;;;;;;5092086;28;20031;-62
2023/08/16 02:36:08;;;;;;;4.07;1.50;;;19.90;99.90;;;;;;5092128;28;20028;-61
2023/08/16 02:38:34;;;;;;;6.78;2.03;;;19.90;99.90;;;;;;5092360;28;20081;-62
2023/08/16 02:41:00;;;;;;;3.55;1.60;;;19.90;99.90;;;;;;5092076;28;20028;-61
2023/08/16 02:43:26;;;;;;;3.60;1.70;;;19.80;99.90;;;;;;5091847;28;20574;-62
2023/08/16 02:45:53;;;;;;;4.75;1.65;;;19.90;99.90;;;;;;5091759;28;20020;-61
2023/08/16 02:48:19;;;;;;;3.80;1.70;;;19.90;99.90;;;;;;5091608;28;20067;-62
2023/08/16 02:50:45;;;;;;;4.13;1.80;;;20.10;99.90;;;;;;5091763;28;20431;-62
2023/08/16 02:53:11;;;;;;;3.80;1.50;;;20.40;99.90;;;;;;5092191;28;20028;-61
2023/08/16 02:55:38;;;;;;;5.80;1.75;;;20.50;99.90;;;;;;5091771;28;20509;-61
2023/08/16 02:58:04;;;;;;;4.07;1.50;;;20.70;99.90;;;;;;5091539;28;20028;-61
2023/08/16 03:00:30;;;;;;;3.92;1.75;;;20.70;99.90;;;;;;5091274;28;20047;-61
2023/08/16 03:02:56;;;;;;;4.00;1.55;;;20.70;99.90;;;;;;5091618;28;20152;-61
2023/08/16 03:05:22;;;;;;;5.90;1.70;;;20.70;99.90;;;;;;5092052;28;20032;-62
2023/08/16 03:07:48;;;;;;;3.58;1.65;;;20.80;99.90;;;;;;5091399;28;20039;-61
2023/08/16 03:10:13;;;;;;;5.90;1.90;;;21.00;99.90;;;;;;5091559;28;20120;-61
2023/08/16 03:12:39;;;;;;;3.83;1.63;;;21.00;99.90;;;;;;5091376;28;20110;-62
2023/08/16 03:15:05;;;;;;;5.80;2.13;;;21.10;99.90;;;;;;5091106;28;20032;-61
2023/08/16 03:17:31;;;;;;;5.45;1.90;;;21.00;99.90;;;;;;5091663;28;20039;-62
2023/08/16 03:19:56;;;;;;;5.35;2.15;;;21.00;99.90;;;;;;5091392;28;20020;-62
2023/08/16 03:22:22;;;;;;;6.15;2.08;;;20.80;99.90;;;;;;5091425;28;20459;-62
2023/08/16 03:24:49;;;;;;;6.68;2.15;;;20.50;99.90;;;;;;5091217;28;20028;-61
2023/08/16 03:27:15;;;;;;;4.85;1.90;;;20.30;99.90;;;;;;5091006;28;20052;-61
2023/08/16 03:29:41;;;;;;;4.25;2.10;;;20.20;99.90;;;;;;5090947;28;20089;-61
2023/08/16 03:32:07;;;;;;;5.40;2.05;;;20.00;99.90;;;;;;5091597;28;20048;-61
2023/08/16 03:34:33;;;;;;;4.95;1.88;;;19.90;99.90;;;;;;5091414;28;20047;-61
2023/08/16 03:36:58;;;;;;;5.28;1.88;;;19.80;99.90;;;;;;5091093;28;20028;-62
2023/08/16 03:39:24;;;;;;;6.57;2.22;;;19.80;99.90;;;;;;5091534;28;20028;-62
2023/08/16 03:41:50;;;;;;;5.47;1.95;;;19.70;99.90;;;;;;5091159;28;20017;-61
2023/08/16 03:44:16;;;;;;;6.15;2.13;;;19.70;99.90;;;;;;5094508;28;20020;-61
2023/08/16 03:46:42;;;;;;;5.07;2.00;;;19.60;99.90;;;;;;5095344;28;20051;-62
2023/08/16 03:49:07;;;;;;;5.95;2.00;;;19.50;99.90;;;;;;5077068;28;20484;-61
2023/08/16 03:51:33;;;;;;;7.15;2.15;;;19.40;99.90;;;;;;5095285;28;20031;-62
2023/08/16 03:53:59;;;;;;;5.63;1.90;;;19.40;99.90;;;;;;5095683;28;20032;-62
2023/08/16 03:56:24;;;;;;;4.70;1.92;;;19.30;99.90;;;;;;5095119;28;20515;-61
2023/08/16 03:58:50;;;;;;;4.82;2.03;;;19.30;99.90;;;;;;5094965;28;20503;-61
2023/08/16 04:01:16;;;;;;;5.20;2.22;;;19.20;99.90;;;;;;5095437;28;20039;-62
2023/08/16 04:03:43;;;;;;;4.60;2.00;;;19.20;99.90;;;;;;5095052;28;20032;-62
2023/08/16 04:06:11;;;;;;;6.43;2.03;;;19.20;99.90;;;;;;5095084;28;20103;-61
2023/08/16 04:08:40;;;;;;;4.57;1.90;;;19.50;99.90;;;;;;5095078;28;20044;-61
2023/08/16 04:11:06;;;;;;;6.38;2.22;;;19.70;99.90;;;;;;5094748;28;20024;-61
2023/08/16 04:13:32;;;;;;;3.90;1.80;;;19.90;99.90;;;;;;5094843;28;20043;-62
2023/08/16 04:15:57;;;;;;;6.82;2.10;;;20.10;99.90;;;;;;5094719;28;20115;-61
2023/08/16 04:18:25;;;;;;;5.60;2.20;;;20.00;99.90;;;;;;5094745;28;20099;-61
2023/08/16 04:20:50;;;;;;;3.67;1.70;;;20.00;99.90;;;;;;5094803;28;20024;-61
2023/08/16 04:23:16;;;;;;;6.72;2.17;;;20.30;99.90;;;;;;5095004;28;20024;-61
2023/08/16 04:25:42;;;;;;;5.32;1.85;;;20.40;99.90;;;;;;5094348;28;20097;-61
2023/08/16 04:28:07;;;;;;;6.55;2.00;;;20.40;99.90;;;;;;5094082;28;20036;-62
2023/08/16 04:30:34;;;;;;;5.93;1.63;;;20.30;99.90;;;;;;5094875;28;20026;-61
2023/08/16 04:32:59;;;;;;;6.00;1.73;;;20.30;99.90;;;;;;5094510;28;20455;-61
2023/08/16 04:35:25;;;;;;;4.32;1.50;;;20.40;99.90;;;;;;5094908;28;20016;-61
2023/08/16 04:37:51;;;;;;;5.15;2.00;;;20.50;99.90;;;;;;5094449;28;20024;-61
2023/08/16 04:40:17;;;;;;;7.28;2.25;;;20.40;99.90;;;;;;5094264;28;20055;-62
2023/08/16 04:42:42;;;;;;;5.53;1.90;;;20.30;99.90;;;;;;5093147;28;20054;-61
2023/08/16 04:45:08;;;;;;;5.68;2.10;;;20.10;99.90;;;;;;5094390;28;20024;-62
2023/08/16 04:47:34;;;;;;;6.80;1.90;;;20.00;99.90;;;;;;5094043;28;20041;-62
2023/08/16 04:50:03;;;;;;;5.65;1.77;;;19.90;99.90;;;;;;5094214;28;20012;-62
2023/08/16 04:52:29;;;;;;;4.38;1.80;;;19.80;99.90;;;;;;5094527;28;20048;-61
2023/08/16 04:54:54;;;;;;;6.05;1.85;;;19.80;99.90;;;;;;5093245;28;20442;-61
2023/08/16 04:57:20;;;;;;;6.85;1.95;;;19.70;99.90;;;;;;5075219;28;20032;-62
2023/08/16 04:59:46;;;;;;;6.38;2.00;;;19.70;99.90;;;;;;5094267;28;20020;-61
2023/08/16 05:02:11;;;;;;;6.32;1.77;;;19.70;99.90;;;;;;5093991;28;20475;-61
2023/08/16 05:04:37;;;;;;;4.80;2.03;;;19.70;99.90;;;;;;5093986;28;20031;-61
2023/08/16 05:07:03;;;;;;;5.03;2.00;;;19.70;99.90;;;;;;5093927;28;20042;-62
2023/08/16 05:09:28;;;;;;;5.63;2.15;;;19.70;99.90;;;;;;5093996;28;20031;-61
2023/08/16 05:11:54;;;;;;;6.30;2.35;;;19.70;99.90;;;;;;5093489;28;20054;-62
2023/08/16 05:14:20;;;;;;;7.80;2.50;;;19.70;99.90;;;;;;5093541;28;20109;-61
2023/08/16 05:16:45;;;;;;;4.22;2.05;;;19.70;99.90;;;;;;5093994;28;20028;-61
2023/08/16 05:19:11;;;;;;;7.78;2.55;;;19.70;99.90;;;;;;5093519;28;20016;-60
2023/08/16 05:21:36;;;;;;;5.45;2.20;;;19.70;99.90;;;;;;5093504;28;20039;-61
2023/08/16 05:24:02;;;;;;;6.10;2.30;;;19.60;99.90;;;;;;5075334;28;20070;-61
2023/08/16 05:26:28;;;;;;;5.95;2.50;;;19.80;99.90;;;;;;5092941;28;20048;-61
2023/08/16 05:28:54;;;;;;;4.10;1.90;;;20.10;99.90;;;;;;5093779;28;20035;-61
2023/08/16 05:31:19;;;;;;;4.15;2.10;;;20.30;99.90;;;;;;5093409;28;20528;-61
2023/08/16 05:33:45;;;;;;;5.32;1.90;;;20.60;99.90;;;;;;5093526;28;20051;-61
2023/08/16 05:36:11;;;;;;;2.72;1.70;;;20.60;99.90;;;;;;5093212;28;20042;-62
2023/08/16 05:38:37;;;;;;;5.35;2.15;;;20.70;99.90;;;;;;5093362;28;20111;-61
2023/08/16 05:41:05;;;;;;;5.13;2.10;;;20.80;99.90;;;;;;5093263;28;20082;-61
2023/08/16 05:43:31;;;;;;;3.80;1.90;;;20.80;99.90;;;;;;5093126;28;20028;-61
2023/08/16 05:45:57;;;;;;;4.32;1.88;;;20.80;99.90;;;;;;5093276;28;20024;-61
2023/08/16 05:48:23;;;;;;;2.72;1.70;;;20.70;99.90;;;;;;5092982;28;20047;-61
2023/08/16 05:50:48;;;;;;;3.83;1.80;;;20.80;99.90;;;;;;5093011;28;20048;-62
2023/08/16 05:53:14;;;;;;;3.88;1.83;;;20.70;99.90;;;;;;5093080;28;20077;-59
2023/08/16 05:55:40;;;;;;;3.20;1.77;;;20.80;99.90;;;;;;5092865;28;20460;-61
2023/08/16 05:58:05;;;;;;;3.47;1.88;;;20.70;99.90;;;;;;5092706;28;20054;-61
2023/08/16 06:00:31;;;;;;;5.57;2.30;;;20.50;99.90;;;;;;5092942;28;20099;-62
2023/08/16 06:02:58;;;;;;;4.28;2.03;;;20.30;99.90;;;;;;5092864;28;20028;-61
2023/08/16 06:05:24;;;;;;;6.03;2.20;;;20.20;99.90;;;;;;5092863;28;20039;-61
2023/08/16 06:07:49;;;;;;;6.63;2.08;;;20.10;99.90;;;;;;5091528;28;20377;-61
2023/08/16 06:10:15;;;;;;;4.50;2.05;;;20.00;99.90;;;;;;5092773;28;20054;-61
2023/08/16 06:12:41;;;;;;;3.17;1.70;;;20.00;99.90;;;;;;5092678;28;20066;-61
2023/08/16 06:15:11;;;;;;;3.30;2.08;;;20.00;99.90;;;;;;5092457;28;20028;-61
2023/08/16 06:17:37;;;;;;;3.75;1.90;;;19.90;99.90;;;;;;5092795;28;20035;-61
2023/08/16 06:20:05;;;;;;;4.93;2.08;;;19.90;99.90;;;;;;5092364;28;20024;-62
2023/08/16 06:22:33;;;;;;;4.22;1.85;;;19.90;99.90;;;;;;5092064;28;20024;-61
2023/08/16 06:24:58;;;;;;;3.60;1.80;;;19.80;99.90;;;;;;5092396;28;20028;-61
2023/08/16 06:27:24;;;;;;;3.97;2.00;;;19.80;99.90;;;;;;5092292;28;20055;-61
2023/08/16 06:29:50;;;;;;;2.40;1.83;;;19.80;99.90;;;;;;5092386;28;20117;-61
2023/08/16 06:32:16;;;;;;;4.15;1.98;;;19.80;99.90;;;;;;5092261;28;20051;-61
2023/08/16 06:34:42;;;;;;;6.22;1.92;;;19.80;99.90;;;;;;5092130;28;20024;-61
2023/08/16 06:37:07;;;;;;;3.50;1.70;;;19.80;99.90;;;;;;5091874;28;20020;-61
2023/08/16 06:39:33;;;;;;;2.95;2.00;;;19.80;99.90;;;;;;5073838;28;20439;-61
2023/08/16 06:41:59;;;;;;;5.72;2.25;;;19.90;99.90;;;;;;5092046;28;20020;-61
2023/08/16 06:44:26;;;;;;;7.30;2.30;;;20.20;99.90;;;;;;5092351;28;20507;-61
2023/08/16 06:46:51;;;;;;;3.33;1.85;;;20.40;99.90;;;;;;5073678;28;20432;-61
2023/08/16 06:49:17;;;;;;;2.80;1.75;;;20.60;99.90;;;;;;5091857;28;20028;-62
2023/08/16 06:51:43;;;;;;;3.03;1.90;;;20.80;99.90;;;;;;5091812;28;20035;-61
2023/08/16 06:54:08;;;;;;;3.17;1.80;;;21.00;99.90;;;;;;5091781;28;20028;-61
2023/08/16 06:56:34;;;;;;;3.72;1.77;;;21.10;99.90;;;;;;5091753;28;20393;-61
2023/08/16 06:59:00;;;;;;;5.38;2.15;;;21.20;99.90;;;;;;5091786;28;20111;-62
2023/08/16 07:01:26;;;;;;;3.38;1.70;;;21.20;99.90;;;;;;5091673;28;20466;-61
2023/08/16 07:03:51;;;;;;;3.30;2.03;;;21.30;99.90;;;;;;5091972;28;20032;-61
2023/08/16 07:06:18;;;;;;;3.78;1.90;;;21.20;99.90;;;;;;5091142;28;20031;-61
2023/08/16 07:08:43;;;;;;;3.67;1.85;;;21.30;99.90;;;;;;5091548;28;20032;-61
2023/08/16 07:11:09;;;;;;;4.63;1.90;;;21.30;99.90;;;;;;5091634;28;20020;-62
2023/08/16 07:13:35;;;;;;;2.75;1.90;;;21.30;99.90;;;;;;5091480;28;20031;-61
2023/08/16 07:16:00;;;;;;;3.50;2.08;;;21.20;99.90;;;;;;5071281;28;20050;-61
2023/08/16 07:18:26;;;;;;;3.38;1.88;;;21.00;99.90;;;;;;5070742;28;20107;-62
2023/08/16 07:20:52;;;;;;;4.35;1.90;;;20.90;99.90;;;;;;5089789;28;20028;-61
2023/08/16 07:23:17;;;;;;;6.05;2.20;;;20.80;99.90;;;;;;5091591;28;20145;-61
2023/08/16 07:25:43;;;;;;;4.88;2.03;;;20.70;99.90;;;;;;5091433;28;20044;-61
2023/08/16 07:28:10;;;;;;;3.85;2.03;;;20.70;99.90;;;;;;5091179;28;20048;-61
2023/08/16 07:30:39;;;;;;;3.20;2.03;;;20.60;99.90;;;;;;5073657;28;20031;-61
2023/08/16 07:33:05;;;;;;;4.07;2.20;;;20.70;99.90;;;;;;5091012;28;20032;-61
2023/08/16 07:35:31;;;;;;;3.28;1.85;;;20.60;99.90;;;;;;5091305;28;20043;-61
2023/08/16 07:37:56;;;;;;;2.85;1.98;;;20.70;99.90;;;;;;5091319;28;20058;-61
2023/08/16 07:40:23;;;;;;;5.32;2.10;;;20.60;99.90;;;;;;5091185;28;20032;-61
2023/08/16 07:42:48;;;;;;;2.92;1.70;;;20.60;99.90;;;;;;5091182;28;20028;-61
2023/08/16 07:45:14;;;;;;;3.47;1.92;;;20.60;99.90;;;;;;5091236;28;20039;-62
2023/08/16 07:47:40;;;;;;;4.43;2.00;;;20.70;99.90;;;;;;5090916;28;20047;-61
2023/08/16 07:50:06;;;;;;;3.17;2.00;;;20.70;99.90;;;;;;5091212;28;20588;-62
2023/08/16 07:52:32;;;;;;;3.10;1.40;;;20.80;99.90;;;;;;5091226;28;20579;-61
2023/08/16 07:54:58;;;;;;;3.03;1.70;;;20.90;99.90;;;;;;5091162;28;20091;-62
2023/08/16 07:57:24;;;;;;;4.45;2.05;;;20.90;99.90;;;;;;5091110;28;20467;-61
2023/08/16 07:59:49;;;;;;;3.28;1.80;;;21.00;99.90;;;;;;5091542;28;20028;-62
2023/08/16 08:02:15;;;;;;;4.65;1.77;;;21.20;99.90;;;;;;5090879;28;20047;-61
2023/08/16 08:04:41;;;;;;;3.72;1.88;;;21.40;99.90;;;;;;5090687;28;20069;-61
2023/08/16 08:07:06;;;;;;;3.50;1.77;;;21.70;99.90;;;;;;5090843;28;20122;-62
2023/08/16 08:09:32;;;;;;;4.60;2.00;;;21.70;99.90;;;;;;5091010;28;20157;-61
2023/08/16 08:11:58;;;;;;;3.40;1.80;;;21.80;99.90;;;;;;5091000;28;20039;-61
2023/08/16 08:14:24;;;;;;;2.28;1.80;;;22.00;99.90;;;;;;5090757;28;20020;-61
2023/08/16 08:16:50;;;;;;;3.03;1.90;;;22.10;99.90;;;;;;5091093;28;20039;-61
2023/08/16 08:19:16;;;;;;;5.10;2.13;;;22.10;99.90;;;;;;5090628;28;20063;-62
2023/08/16 08:21:42;;;;;;;2.85;1.92;;;22.20;99.90;;;;;;5072623;28;20032;-62
2023/08/16 08:24:07;;;;;;;3.60;1.92;;;22.30;99.90;;;;;;5090841;28;20028;-61
2023/08/16 08:26:34;;;;;;;3.65;1.98;;;22.10;99.90;;;;;;5090585;28;20071;-61
2023/08/16 08:29:00;;;;;;;3.35;2.03;;;22.20;99.90;;;;;;5090725;28;20048;-61
2023/08/16 08:31:26;;;;;;;4.70;2.10;;;22.40;99.90;;;;;;5094175;28;20058;-61
2023/08/16 08:33:52;;;;;;;7.60;2.78;;;22.40;99.90;;;;;;5094343;28;20064;-61
2023/08/16 08:36:17;;;;;;;5.90;1.92;;;22.30;99.90;;;;;;5094407;28;20020;-62
2023/08/16 08:38:43;;;;;;;5.00;2.00;;;22.20;99.90;;;;;;5094534;28;20028;-61
2023/08/16 08:41:09;;;;;;;5.18;2.33;;;22.10;99.90;;;;;;5094400;28;20442;-62
2023/08/16 08:43:36;;;;;;;4.38;1.90;;;22.00;99.90;;;;;;5094754;28;20028;-61
2023/08/16 08:46:04;;;;;;;3.72;1.83;;;22.00;99.90;;;;;;5094378;28;20107;-61
2023/08/16 08:48:30;;;;;;;3.20;1.95;;;22.00;99.90;;;;;;5093814;28;20101;-61
2023/08/16 08:50:57;;;;;;;4.30;2.00;;;22.00;99.90;;;;;;5094187;28;20020;-61
2023/08/16 08:53:24;;;;;;;3.72;2.08;;;22.00;99.90;;;;;;5094108;28;20037;-61
2023/08/16 08:55:52;;;;;;;3.17;1.98;;;22.10;99.90;;;;;;5094583;28;20400;-61
2023/08/16 08:58:19;;;;;;;2.88;2.05;;;22.10;99.90;;;;;;5093974;28;20032;-61
2023/08/16 09:00:46;;;;;;;2.75;2.00;;;22.10;99.90;;;;;;5093914;28;20027;-61
2023/08/16 09:03:12;;;;;;;4.35;2.20;;;22.20;99.90;;;;;;5094084;28;20024;-61
2023/08/16 09:05:40;;;;;;;4.72;2.10;;;22.50;99.90;;;;;;5093870;28;20059;-61
2023/08/16 09:08:08;;;;;;;5.13;2.47;;;22.60;99.90;;;;;;5093913;28;20032;-61
2023/08/16 09:10:37;;;;;;;4.18;2.42;;;22.60;99.90;;;;;;5094418;28;20016;-62
2023/08/16 09:13:06;;;;;;;4.50;2.20;;;22.60;99.90;;;;;;5093767;28;20054;-62
2023/08/16 09:15:34;;;;;;;4.88;2.38;;;22.50;99.90;;;;;;5093412;28;20533;-62
2023/08/16 09:18:17;;;;;;;3.58;2.08;;;22.50;99.90;;;;;;5075124;28;20516;-62
2023/08/16 09:20:44;;;;;;;4.20;2.10;;;22.70;99.90;;;;;;5093571;28;20024;-61
2023/08/16 09:23:13;;;;;;;3.38;2.10;;;23.00;99.90;;;;;;5093649;28;20029;-62
2023/08/16 09:25:39;;;;;;;3.85;1.98;;;23.20;99.90;;;;;;5093457;28;20048;-62
2023/08/16 09:28:09;;;;;;;2.53;1.70;;;23.40;99.90;;;;;;5093580;28;20028;-62
2023/08/16 09:30:35;;;;;;;4.50;1.95;;;23.60;99.90;;;;;;5093518;28;20028;-61
2023/08/16 09:33:01;;;;;;;3.75;2.00;;;23.70;99.90;;;;;;5093290;28;20425;-62
2023/08/16 09:35:28;;;;;;;3.65;1.90;;;23.80;99.90;;;;;;5093722;28;20028;-62
2023/08/16 09:37:58;;;;;;;3.53;2.00;;;23.90;99.90;;;;;;5093328;28;20035;-61
2023/08/16 09:40:24;;;;;;;2.58;1.80;;;24.10;99.90;;;;;;5092950;28;20112;-61
2023/08/16 09:42:50;;;;;;;4.85;2.15;;;24.40;99.90;;;;;;5093371;28;20055;-61
2023/08/16 09:45:26;;;;;;;5.88;2.20;;;24.60;99.90;;;;;;5092933;28;20031;-61
2023/08/16 09:47:51;;;;;;;5.50;2.30;;;24.70;99.90;;;;;;5093101;28;20050;-62
2023/08/16 09:50:21;;;;;;;3.28;2.20;;;24.80;99.90;;;;;;5093038;28;20400;-61
2023/08/16 09:52:51;;;;;;;4.18;2.30;;;24.80;99.90;;;;;;5092896;28;20560;-62
2023/08/16 09:55:28;;;;;;;4.05;2.25;;;24.90;99.90;;;;;;5093022;28;20024;-62
2023/08/16 09:57:57;;;;;;;5.57;2.38;;;24.80;99.90;;;;;;5093143;28;20036;-61
2023/08/16 10:00:27;;;;;;;6.15;2.42;;;24.60;99.90;;;;;;5092444;28;20511;-61
2023/08/16 10:02:53;;;;;;;5.00;2.40;;;24.50;99.90;;;;;;5092756;28;20573;-61
2023/08/16 10:05:19;;;;;;;5.03;2.33;;;24.50;99.90;;;;;;5093367;28;20044;-62
2023/08/16 10:07:48;;;;;;;7.07;3.88;;;24.50;99.90;;;;;;5092495;28;20044;-62
2023/08/16 10:10:15;;;;;;;8.35;5.05;;;24.50;99.90;;;;;;5092864;28;20031;-61
2023/08/16 10:12:41;;;;;;;17.85;10.95;;;24.60;99.90;;;;;;5092497;28;20027;-62
2023/08/16 10:15:08;;;;;;;14.15;8.45;;;24.60;99.90;;;;;;5092023;28;20538;-61
2023/08/16 10:17:38;;;;;;;28.13;17.13;;;24.60;99.90;;;;;;5092578;28;20024;-61
2023/08/16 10:20:07;;;;;;;22.00;14.68;;;24.50;99.90;;;;;;5092374;28;20069;-62
2023/08/16 10:22:38;;;;;;;25.58;16.10;;;24.50;99.90;;;;;;5092437;28;20024;-61
2023/08/16 10:25:17;;;;;;;16.30;9.73;;;24.60;99.90;;;;;;5092359;28;20031;-61
2023/08/16 10:27:44;;;;;;;17.70;9.80;;;24.70;99.90;;;;;;5092014;28;20520;-62
2023/08/16 10:30:24;;;;;;;13.35;8.98;;;24.90;99.90;;;;;;5092055;28;20024;-62
2023/08/16 10:32:58;;;;;;;11.50;6.25;;;24.90;99.90;;;;;;5092276;28;20039;-61
2023/08/16 10:35:25;;;;;;;44.25;25.05;;;24.90;99.90;;;;;;5092036;28;20026;-61
2023/08/16 10:37:53;;;;;;;49.38;27.50;;;25.00;99.90;;;;;;5092331;28;20489;-61
2023/08/16 10:40:20;;;;;;;70.40;33.35;;;25.10;99.90;;;;;;5092005;28;20080;-61
2023/08/16 10:43:03;;;;;;;37.25;20.63;;;25.20;99.90;;;;;;5091862;28;20085;-61
2023/08/16 10:45:34;;;;;;;28.70;18.37;;;25.60;99.90;;;;;;5091862;28;20031;-61
2023/08/16 10:48:10;;;;;;;25.90;15.85;;;25.60;99.90;;;;;;5091928;28;20084;-61
2023/08/16 10:50:36;;;;;;;22.90;16.48;;;25.90;99.90;;;;;;5092020;28;20035;-61
2023/08/16 10:53:04;;;;;;;18.13;12.48;;;26.10;99.90;;;;;;5091351;28;20054;-62
2023/08/16 10:55:30;;;;;;;24.33;15.35;;;26.10;99.90;;;;;;5091778;28;20475;-62
2023/08/16 10:57:55;;;;;;;13.00;8.40;;;26.10;99.90;;;;;;5092023;28;20191;-61
2023/08/16 11:00:35;;;;;;;10.52;7.93;;;26.20;99.90;;;;;;5091699;28;20028;-61
2023/08/16 11:03:03;;;;;;;9.10;6.57;;;26.30;99.90;;;;;;5091620;28;20035;-61
2023/08/16 11:05:31;;;;;;;11.52;8.18;;;26.50;99.90;;;;;;5091678;28;20024;-62
2023/08/16 11:07:59;;;;;;;8.38;6.10;;;26.50;99.90;;;;;;5092047;28;20032;-61
2023/08/16 11:10:35;;;;;;;9.25;6.03;;;26.40;99.90;;;;;;5091594;28;20103;-61
2023/08/16 11:13:08;;;;;;;5.45;3.65;;;26.50;99.90;;;;;;5091263;28;20024;-61
2023/08/16 11:15:34;;;;;;;6.32;3.35;;;26.70;99.90;;;;;;5091294;28;20020;-62
2023/08/16 11:18:00;;;;;;;3.65;2.90;;;26.70;99.90;;;;;;5091609;28;20028;-62
2023/08/16 11:20:29;;;;;;;4.32;2.80;;;26.70;99.90;;;;;;5091453;28;20020;-61
2023/08/16 11:22:55;;;;;;;4.07;3.15;;;26.70;99.90;;;;;;5091419;28;20035;-61
2023/08/16 11:25:21;;;;;;;5.57;2.65;;;26.50;99.90;;;;;;5091133;28;20032;-62
2023/08/16 11:27:47;;;;;;;5.40;3.25;;;26.40;99.90;;;;;;5090928;28;20043;-61
2023/08/16 11:30:13;;;;;;;4.50;2.90;;;26.40;99.90;;;;;;5091700;28;20034;-62
2023/08/16 11:32:40;;;;;;;5.10;2.72;;;26.30;99.90;;;;;;5091372;28;20027;-62
2023/08/16 11:35:06;;;;;;;4.32;2.88;;;26.30;99.90;;;;;;5091345;28;20055;-62
2023/08/16 11:37:33;;;;;;;4.43;2.70;;;26.30;99.90;;;;;;5091254;28;20028;-60
2023/08/16 11:40:04;;;;;;;4.88;3.17;;;26.40;99.90;;;;;;5073124;28;20027;-62
2023/08/16 11:42:30;;;;;;;6.43;3.13;;;26.40;99.90;;;;;;5090986;28;20027;-62
2023/08/16 11:44:56;;;;;;;6.40;3.10;;;26.40;99.90;;;;;;5091575;28;20561;-62
2023/08/16 11:47:22;;;;;;;5.10;3.33;;;26.30;99.90;;;;;;5091249;28;20044;-62
2023/08/16 11:49:49;;;;;;;6.15;3.00;;;26.40;99.90;;;;;;5091222;28;20047;-62
2023/08/16 11:52:25;;;;;;;6.13;2.95;;;26.50;99.90;;;;;;5091395;28;20035;-62
2023/08/16 11:55:05;;;;;;;4.82;2.92;;;26.60;99.90;;;;;;5091426;28;20065;-62
2023/08/16 11:57:43;;;;;;;3.55;2.70;;;26.70;99.90;;;;;;5090693;28;20122;-62
2023/08/16 12:00:10;;;;;;;4.50;2.80;;;26.80;99.90;;;;;;5091030;28;20024;-62
2023/08/16 12:02:36;;;;;;;4.38;2.70;;;26.80;99.90;;;;;;5091153;28;20109;-62
2023/08/16 12:05:09;;;;;;;5.47;3.20;;;26.90;99.90;;;;;;5094248;28;20028;-61
2023/08/16 12:07:48;;;;;;;5.80;2.80;;;27.10;99.90;;;;;;5094921;28;20472;-62
2023/08/16 12:10:27;;;;;;;4.35;2.63;;;27.30;99.90;;;;;;5094631;28;20537;-61
2023/08/16 12:12:56;;;;;;;3.95;2.80;;;27.40;99.90;;;;;;5095089;28;20062;-62
2023/08/16 12:15:31;;;;;;;5.78;2.70;;;27.60;99.90;;;;;;5095049;28;20028;-62
2023/08/16 12:17:57;;;;;;;4.95;2.90;;;27.70;99.90;;;;;;5095273;28;20027;-62
2023/08/16 12:20:25;;;;;;;3.85;2.67;;;27.60;99.90;;;;;;5094683;28;20045;-61
2023/08/16 12:22:52;;;;;;;5.03;2.50;;;27.40;99.90;;;;;;5094718;28;20111;-62
2023/08/16 12:25:17;;;;;;;3.83;2.65;;;27.50;99.90;;;;;;5094283;28;20100;-61
2023/08/16 12:27:43;;;;;;;5.50;2.85;;;27.40;99.90;;;;;;5094923;28;20481;-62
2023/08/16 12:30:09;;;;;;;5.18;2.72;;;27.40;99.90;;;;;;5094638;28;20389;-62
2023/08/16 12:32:35;;;;;;;6.75;2.30;;;27.30;99.90;;;;;;5094664;28;20024;-62
2023/08/16 12:35:01;;;;;;;4.22;2.15;;;27.30;99.90;;;;;;5094510;28;20085;-61
2023/08/16 12:37:26;;;;;;;4.43;2.40;;;27.20;99.90;;;;;;5094377;28;20042;-62
2023/08/16 12:39:52;;;;;;;4.53;2.65;;;27.10;99.90;;;;;;5094592;28;20489;-61
2023/08/16 12:42:18;;;;;;;4.85;2.45;;;27.20;99.90;;;;;;5076181;28;20404;-62
2023/08/16 12:44:43;;;;;;;4.15;2.40;;;27.30;99.90;;;;;;5094379;28;20397;-61